Time;durP1;ratioP1;P1;durP2;ratioP2;P2;SDS_P1;SDS_P2;PMS_P1;PMS_P2;Temp;Humidity;BMP_temperature;BMP_pressure;BME280_temperature;BME280_humidity;BME280_pressure;Samples;Min_cycle;Max_cycle;Signal;HPM_P1;HPM_P2
2023/03/04 00:02:09;;;;;;;30.03;13.13;;;2.50;99.90;;;;;;4959545;28;20113;-72
2023/03/04 00:04:35;;;;;;;31.07;12.63;;;2.40;99.90;;;;;;4968084;28;20369;-73
2023/03/04 00:07:00;;;;;;;29.07;13.23;;;2.30;99.90;;;;;;4983927;28;20061;-73
2023/03/04 00:09:26;;;;;;;34.60;13.00;;;2.30;99.90;;;;;;4961331;28;20023;-73
2023/03/04 00:11:52;;;;;;;28.83;12.13;;;2.30;99.90;;;;;;4971996;28;20441;-73
2023/03/04 00:14:17;;;;;;;27.27;11.37;;;2.30;99.90;;;;;;4977522;28;20479;-72
2023/03/04 00:16:43;;;;;;;28.50;12.10;;;2.30;99.90;;;;;;4984913;28;20085;-73
2023/03/04 00:19:09;;;;;;;28.73;12.53;;;2.40;99.90;;;;;;4967184;28;20026;-72
2023/03/04 00:21:35;;;;;;;32.13;12.43;;;2.40;99.90;;;;;;4976784;28;20433;-72
2023/03/04 00:24:01;;;;;;;35.83;13.20;;;2.40;99.90;;;;;;4989945;28;20038;-71
2023/03/04 00:26:26;;;;;;;31.37;12.50;;;2.40;99.90;;;;;;4959197;28;20042;-72
2023/03/04 00:28:52;;;;;;;33.10;13.30;;;2.40;99.90;;;;;;4968871;28;20157;-72
2023/03/04 00:31:17;;;;;;;30.87;12.80;;;2.40;99.90;;;;;;4983867;28;20086;-72
2023/03/04 00:33:43;;;;;;;33.03;12.50;;;2.30;99.90;;;;;;4992662;28;20117;-72
2023/03/04 00:36:10;;;;;;;31.10;13.47;;;2.30;99.90;;;;;;4963248;28;20033;-72
2023/03/04 00:38:36;;;;;;;35.73;14.00;;;2.30;99.90;;;;;;4976014;28;20022;-71
2023/03/04 00:41:01;;;;;;;34.00;13.37;;;2.30;99.90;;;;;;4968185;28;20027;-71
2023/03/04 00:43:27;;;;;;;33.40;13.63;;;2.30;99.90;;;;;;4969041;28;20031;-72
2023/03/04 00:45:53;;;;;;;37.50;14.30;;;2.30;99.90;;;;;;4978837;28;20460;-71
2023/03/04 00:48:18;;;;;;;35.00;14.57;;;2.30;99.90;;;;;;4973518;28;20074;-71
2023/03/04 00:50:44;;;;;;;38.23;14.17;;;2.30;99.90;;;;;;4967520;28;20030;-73
2023/03/04 00:53:10;;;;;;;42.07;15.10;;;2.30;99.90;;;;;;4995452;28;20117;-72
2023/03/04 00:55:36;;;;;;;38.63;14.83;;;2.20;99.90;;;;;;4970610;28;20050;-73
2023/03/04 00:58:02;;;;;;;42.43;16.60;;;2.20;99.90;;;;;;4991373;28;20089;-74
2023/03/04 01:00:28;;;;;;;101.63;39.83;;;2.20;99.90;;;;;;4980424;28;20121;-74
2023/03/04 01:02:53;;;;;;;44.20;19.63;;;2.30;99.90;;;;;;4985426;28;20122;-73
2023/03/04 01:05:19;;;;;;;46.17;17.50;;;2.30;99.90;;;;;;4989343;28;20034;-74
2023/03/04 01:07:45;;;;;;;38.20;15.53;;;2.30;99.90;;;;;;4979755;28;20472;-73
2023/03/04 01:10:13;;;;;;;40.17;15.53;;;2.20;99.90;;;;;;4995793;28;20023;-74
2023/03/04 01:12:40;;;;;;;41.43;15.73;;;2.20;99.90;;;;;;4986923;28;20496;-74
2023/03/04 01:15:06;;;;;;;39.43;16.40;;;2.20;99.90;;;;;;4986075;28;20490;-73
2023/03/04 01:17:32;;;;;;;45.20;16.60;;;2.20;99.90;;;;;;4980759;28;20600;-73
2023/03/04 01:19:58;;;;;;;44.07;16.83;;;2.10;99.90;;;;;;4991815;28;20034;-72
2023/03/04 01:22:23;;;;;;;38.23;14.50;;;2.10;99.90;;;;;;4979655;28;20085;-73
2023/03/04 01:24:49;;;;;;;47.00;17.33;;;2.10;99.90;;;;;;4986823;28;20061;-74
2023/03/04 01:27:15;;;;;;;39.83;16.83;;;2.00;99.90;;;;;;4986702;28;20474;-74
2023/03/04 01:29:40;;;;;;;42.30;16.27;;;2.00;99.90;;;;;;4994282;28;20030;-73
2023/03/04 01:32:06;;;;;;;39.30;16.27;;;2.00;99.90;;;;;;4979017;28;20034;-72
2023/03/04 01:34:31;;;;;;;44.30;17.10;;;2.00;99.90;;;;;;4993447;28;20475;-73
2023/03/04 01:36:57;;;;;;;42.27;16.40;;;2.00;99.90;;;;;;4984594;28;20027;-73
2023/03/04 01:39:23;;;;;;;42.43;15.50;;;2.00;99.90;;;;;;4981428;28;20030;-74
2023/03/04 01:41:48;;;;;;;38.13;15.53;;;1.90;99.90;;;;;;4979063;28;20033;-74
2023/03/04 01:44:14;;;;;;;43.07;16.90;;;1.90;99.90;;;;;;4993632;28;20096;-76
2023/03/04 01:46:46;;;;;;;45.07;17.07;;;1.80;99.90;;;;;;4986470;28;20439;-74
2023/03/04 01:49:13;;;;;;;43.70;16.67;;;1.70;99.90;;;;;;4987300;28;20022;-73
2023/03/04 01:51:40;;;;;;;42.03;15.50;;;1.70;99.90;;;;;;4978350;28;20042;-73
2023/03/04 01:54:07;;;;;;;48.80;16.87;;;1.70;99.90;;;;;;4977178;28;20388;-74
2023/03/04 01:56:38;;;;;;;44.60;16.70;;;1.70;99.90;;;;;;4988104;28;20249;-74
2023/03/04 01:59:22;;;;;;;47.93;18.00;;;1.60;99.90;;;;;;4975429;28;20022;-73
2023/03/04 02:01:53;;;;;;;46.47;17.03;;;1.60;99.90;;;;;;4973811;28;20022;-73
2023/03/04 02:04:23;;;;;;;45.78;16.85;;;1.60;99.90;;;;;;4962245;28;20034;-73
2023/03/04 02:06:50;;;;;;;47.40;17.17;;;1.60;99.90;;;;;;4968697;28;20105;-73
2023/03/04 02:09:16;;;;;;;47.40;17.13;;;1.60;99.90;;;;;;4969865;28;20476;-73
2023/03/04 02:11:43;;;;;;;50.70;16.40;;;1.70;99.90;;;;;;4977322;28;20032;-72
2023/03/04 02:14:10;;;;;;;45.87;15.33;;;1.60;99.90;;;;;;4990993;28;20063;-72
2023/03/04 02:16:36;;;;;;;47.23;16.77;;;1.60;99.90;;;;;;4964408;28;20480;-72
2023/03/04 02:19:06;;;;;;;51.60;16.57;;;1.50;99.90;;;;;;4966457;28;20030;-72
2023/03/04 02:21:33;;;;;;;46.10;16.57;;;1.40;99.90;;;;;;4971428;28;20065;-72
2023/03/04 02:24:25;;;;;;;45.77;15.90;;;1.40;99.90;;;;;;4958958;28;20034;-73
2023/03/04 02:26:50;;;;;;;48.00;16.17;;;1.30;99.90;;;;;;4983940;28;20027;-73
2023/03/04 02:29:16;;;;;;;45.40;16.67;;;1.30;99.90;;;;;;4963820;28;20037;-73
2023/03/04 02:31:48;;;;;;;40.97;15.47;;;1.30;99.90;;;;;;4990730;28;20034;-73
2023/03/04 02:34:26;;;;;;;41.65;15.60;;;1.20;99.90;;;;;;4978623;28;20038;-73
2023/03/04 02:36:53;;;;;;;44.60;15.93;;;1.20;99.90;;;;;;4984796;28;20093;-73
2023/03/04 02:39:27;;;;;;;48.07;17.30;;;1.20;99.90;;;;;;4969308;28;20093;-73
2023/03/04 02:41:54;;;;;;;51.37;18.07;;;1.20;99.90;;;;;;4977436;28;20054;-73
2023/03/04 02:44:26;;;;;;;42.97;16.53;;;1.20;99.90;;;;;;4976155;28;20027;-73
2023/03/04 02:46:52;;;;;;;;;;;1.20;99.90;;;;;;4968036;28;20023;-73
2023/03/04 02:49:19;;;;;;;47.13;15.83;;;1.10;99.90;;;;;;4986702;28;19971;-72
2023/03/04 02:51:44;;;;;;;47.67;17.60;;;1.00;99.90;;;;;;4977756;28;20122;-73
2023/03/04 02:54:18;;;;;;;46.97;16.43;;;1.00;99.90;;;;;;4990088;28;20141;-73
2023/03/04 02:56:52;;;;;;;51.00;17.77;;;0.90;99.90;;;;;;4965211;28;20042;-73
2023/03/04 02:59:19;;;;;;;46.93;15.03;;;0.80;99.90;;;;;;4980686;28;20058;-73
2023/03/04 03:01:45;;;;;;;52.87;18.60;;;0.70;99.90;;;;;;4972685;28;20502;-73
2023/03/04 03:04:11;;;;;;;48.20;17.50;;;0.80;99.90;;;;;;4977990;28;20027;-72
2023/03/04 03:06:39;;;;;;;48.37;16.50;;;0.80;99.90;;;;;;4985838;28;20146;-73
2023/03/04 03:09:05;;;;;;;52.43;17.17;;;0.80;99.90;;;;;;4967510;28;20029;-72
2023/03/04 03:11:31;;;;;;;50.77;16.10;;;0.80;99.90;;;;;;4975630;28;20081;-72
2023/03/04 03:13:56;;;;;;;53.67;17.47;;;0.70;99.90;;;;;;4976728;28;20444;-74
2023/03/04 03:16:22;;;;;;;52.73;17.57;;;0.70;99.90;;;;;;4970641;28;20432;-74
2023/03/04 03:18:48;;;;;;;54.23;17.27;;;0.70;99.90;;;;;;4965702;28;20050;-73
2023/03/04 03:21:13;;;;;;;48.07;16.80;;;0.70;99.90;;;;;;4981124;28;20059;-73
2023/03/04 03:23:39;;;;;;;45.87;16.70;;;0.70;99.90;;;;;;4971409;28;20030;-74
2023/03/04 03:26:05;;;;;;;43.40;15.07;;;0.80;99.90;;;;;;4957098;28;20027;-73
2023/03/04 03:28:30;;;;;;;50.20;18.03;;;0.70;99.90;;;;;;4962631;28;20124;-74
2023/03/04 03:30:56;;;;;;;50.13;16.43;;;0.60;99.90;;;;;;4965857;28;20031;-73
2023/03/04 03:33:22;;;;;;;49.57;16.80;;;0.50;99.90;;;;;;4969000;28;20034;-73
2023/03/04 03:35:48;;;;;;;51.80;17.97;;;0.40;99.90;;;;;;4992767;28;20034;-73
2023/03/04 03:38:14;;;;;;;57.67;16.93;;;0.40;99.90;;;;;;4977806;28;20113;-73
2023/03/04 03:40:39;;;;;;;49.90;16.77;;;0.40;99.90;;;;;;4975161;28;20089;-74
2023/03/04 03:43:05;;;;;;;48.13;17.37;;;0.40;99.90;;;;;;4964608;28;20027;-74
2023/03/04 03:45:31;;;;;;;55.70;18.17;;;0.40;99.90;;;;;;4970448;28;20037;-73
2023/03/04 03:47:56;;;;;;;54.00;17.57;;;0.40;99.90;;;;;;4976996;28;20107;-73
2023/03/04 03:50:22;;;;;;;53.90;18.80;;;0.40;99.90;;;;;;4969964;28;20081;-73
2023/03/04 03:52:48;;;;;;;47.77;16.47;;;0.40;99.90;;;;;;4964748;28;20062;-73
2023/03/04 03:55:13;;;;;;;60.10;18.93;;;0.40;99.90;;;;;;4979735;28;20408;-73
2023/03/04 03:57:39;;;;;;;49.90;16.93;;;0.40;99.90;;;;;;4975770;28;20093;-73
2023/03/04 04:00:06;;;;;;;51.07;16.73;;;0.40;99.90;;;;;;4994130;28;20046;-72
2023/03/04 04:02:32;;;;;;;49.37;16.93;;;0.30;99.90;;;;;;4985873;28;20030;-74
2023/03/04 04:04:57;;;;;;;52.13;17.60;;;0.30;99.90;;;;;;4988004;28;20031;-74
2023/03/04 04:07:23;;;;;;;51.07;17.20;;;0.40;99.90;;;;;;4991255;28;20480;-73
2023/03/04 04:09:48;;;;;;;52.67;16.57;;;0.40;99.90;;;;;;4981869;28;20031;-74
2023/03/04 04:12:15;;;;;;;55.13;17.00;;;0.30;99.90;;;;;;4994114;28;20099;-73
2023/03/04 04:14:42;;;;;;;53.10;17.33;;;0.20;99.90;;;;;;4985691;28;20498;-73
2023/03/04 04:17:08;;;;;;;51.33;18.60;;;0.30;99.90;;;;;;4986885;28;20031;-73
2023/03/04 04:19:33;;;;;;;53.03;18.20;;;0.30;99.90;;;;;;4992935;28;20030;-75
2023/03/04 04:21:59;;;;;;;49.77;16.77;;;0.30;99.90;;;;;;4981413;28;20022;-74
2023/03/04 04:24:25;;;;;;;55.53;17.87;;;0.30;99.90;;;;;;4992042;28;20392;-74
2023/03/04 04:26:50;;;;;;;56.10;18.40;;;0.30;99.90;;;;;;4987656;28;20030;-75
2023/03/04 04:29:16;;;;;;;50.90;16.87;;;0.30;99.90;;;;;;4986509;28;20483;-73
2023/03/04 04:31:42;;;;;;;51.20;16.93;;;0.30;99.90;;;;;;4995107;28;20022;-74
2023/03/04 04:34:08;;;;;;;47.47;16.80;;;0.30;99.90;;;;;;4981346;28;20057;-72
2023/03/04 04:36:34;;;;;;;51.63;17.20;;;0.30;99.90;;;;;;4990632;28;20457;-72
2023/03/04 04:38:59;;;;;;;47.83;17.70;;;0.30;99.90;;;;;;4989750;28;20029;-72
2023/03/04 04:41:30;;;;;;;54.97;18.30;;;0.30;99.90;;;;;;4983528;28;20113;-72
2023/03/04 04:43:56;;;;;;;44.10;15.53;;;0.30;99.90;;;;;;4996139;28;20034;-73
2023/03/04 04:46:22;;;;;;;52.93;16.70;;;0.20;99.90;;;;;;4993546;28;20354;-73
2023/03/04 04:48:48;;;;;;;50.40;17.03;;;0.20;99.90;;;;;;4988093;28;20109;-72
2023/03/04 04:51:14;;;;;;;53.70;17.07;;;0.20;99.90;;;;;;4985593;28;20062;-72
2023/03/04 04:53:40;;;;;;;51.90;17.30;;;0.10;99.90;;;;;;4994522;28;20062;-72
2023/03/04 04:56:17;;;;;;;51.63;17.63;;;0.00;99.90;;;;;;4981227;28;20046;-72
2023/03/04 04:58:43;;;;;;;48.03;16.13;;;0.00;99.90;;;;;;4997456;28;20490;-74
2023/03/04 05:01:10;;;;;;;49.67;16.93;;;-0.10;99.90;;;;;;4987279;28;20023;-73
2023/03/04 05:03:36;;;;;;;53.50;17.77;;;-0.10;99.90;;;;;;4992522;28;20026;-73
2023/03/04 05:06:04;;;;;;;49.00;17.43;;;-0.10;99.90;;;;;;4981374;28;20485;-72
2023/03/04 05:08:30;;;;;;;52.93;17.90;;;-0.10;99.90;;;;;;4990886;28;20027;-72
2023/03/04 05:10:55;;;;;;;58.50;18.40;;;-0.10;99.90;;;;;;4985016;28;20025;-72
2023/03/04 05:13:21;;;;;;;53.07;17.20;;;-0.20;99.90;;;;;;4980784;28;20126;-73
2023/03/04 05:15:47;;;;;;;54.60;17.80;;;-0.20;99.90;;;;;;4992163;28;20033;-73
2023/03/04 05:18:12;;;;;;;51.70;17.67;;;-0.30;99.90;;;;;;4980195;28;20022;-73
2023/03/04 05:20:38;;;;;;;51.40;17.73;;;-0.30;99.90;;;;;;4987845;28;20033;-73
2023/03/04 05:23:03;;;;;;;56.80;17.67;;;-0.30;99.90;;;;;;4985341;28;20034;-73
2023/03/04 05:25:29;;;;;;;53.77;17.33;;;-0.30;99.90;;;;;;4979625;28;20035;-73
2023/03/04 05:27:55;;;;;;;51.43;16.43;;;-0.40;99.90;;;;;;4992005;28;20042;-73
2023/03/04 05:30:20;;;;;;;52.27;16.93;;;-0.40;99.90;;;;;;4980659;28;20026;-82
2023/03/04 05:32:46;;;;;;;56.93;17.07;;;-0.40;99.90;;;;;;4987331;28;20027;-73
2023/03/04 05:35:11;;;;;;;56.23;18.23;;;-0.50;99.90;;;;;;4986160;28;20042;-72
2023/03/04 05:37:37;;;;;;;53.50;18.07;;;-0.50;99.90;;;;;;4978448;28;20543;-75
2023/03/04 05:40:04;;;;;;;56.00;18.67;;;-0.50;99.90;;;;;;4991427;28;20097;-73
2023/03/04 05:42:29;;;;;;;56.53;17.43;;;-0.50;99.90;;;;;;4981147;28;20057;-73
2023/03/04 05:44:55;;;;;;;54.00;17.20;;;-0.50;99.90;;;;;;4993902;28;20057;-73
2023/03/04 05:47:21;;;;;;;49.97;15.80;;;-0.50;99.90;;;;;;4980452;28;20078;-82
2023/03/04 05:49:47;;;;;;;54.07;18.47;;;-0.40;99.90;;;;;;4990435;28;20026;-73
2023/03/04 05:52:12;;;;;;;55.27;18.27;;;-0.40;99.90;;;;;;4978320;28;20026;-73
2023/03/04 05:54:38;;;;;;;55.00;16.60;;;-0.40;99.90;;;;;;4986804;28;20062;-73
2023/03/04 05:57:04;;;;;;;54.17;17.67;;;-0.40;99.90;;;;;;4986340;28;20054;-73
2023/03/04 05:59:30;;;;;;;54.97;18.67;;;-0.40;99.90;;;;;;4980249;28;20380;-73
2023/03/04 06:01:55;;;;;;;56.00;18.30;;;-0.40;99.90;;;;;;4973685;28;20034;-73
2023/03/04 06:04:21;;;;;;;60.80;18.67;;;-0.50;99.90;;;;;;4962922;28;20379;-73
2023/03/04 06:06:47;;;;;;;50.80;17.80;;;-0.50;99.90;;;;;;4986369;28;20031;-73
2023/03/04 06:09:13;;;;;;;49.63;16.90;;;-0.50;99.90;;;;;;4987058;28;20033;-72
2023/03/04 06:11:39;;;;;;;59.37;17.83;;;-0.50;99.90;;;;;;4993861;28;20069;-74
2023/03/04 06:14:04;;;;;;;49.00;17.40;;;-0.50;99.90;;;;;;4978263;28;20026;-73
2023/03/04 06:16:30;;;;;;;57.70;18.47;;;-0.50;99.90;;;;;;4987568;28;20027;-73
2023/03/04 06:18:56;;;;;;;57.13;18.53;;;-0.60;99.90;;;;;;4967463;28;20373;-73
2023/03/04 06:21:22;;;;;;;50.77;17.47;;;-0.60;99.90;;;;;;4963606;28;20026;-83
2023/03/04 06:23:48;;;;;;;52.27;17.40;;;-0.60;99.90;;;;;;4973171;28;20435;-74
2023/03/04 06:26:14;;;;;;;59.20;17.40;;;-0.60;99.90;;;;;;4979095;28;20023;-73
2023/03/04 06:28:43;;;;;;;54.83;16.93;;;-0.60;99.90;;;;;;4969063;28;20023;-74
2023/03/04 06:31:09;;;;;;;55.73;18.27;;;-0.60;99.90;;;;;;4974863;28;20065;-74
2023/03/04 06:33:34;;;;;;;57.40;18.33;;;-0.60;99.90;;;;;;4971734;28;20081;-73
2023/03/04 06:36:00;;;;;;;57.47;18.43;;;-0.60;99.90;;;;;;4977318;28;20035;-73
2023/03/04 06:38:26;;;;;;;56.57;17.13;;;-0.60;99.90;;;;;;4987770;28;20385;-73
2023/03/04 06:40:52;;;;;;;52.27;17.00;;;-0.50;99.90;;;;;;4966340;28;20030;-73
2023/03/04 06:43:18;;;;;;;55.10;17.33;;;-0.40;99.90;;;;;;4981052;28;20030;-73
2023/03/04 06:45:44;;;;;;;56.23;18.20;;;-0.30;99.90;;;;;;4972701;28;20085;-79
2023/03/04 06:48:10;;;;;;;57.97;17.67;;;-0.20;99.90;;;;;;4977784;28;20391;-73
2023/03/04 06:50:36;;;;;;;57.20;18.70;;;-0.10;99.90;;;;;;4969091;28;20023;-73
2023/03/04 06:53:01;;;;;;;58.10;17.67;;;0.00;99.90;;;;;;4967551;28;20030;-72
2023/03/04 06:55:27;;;;;;;56.63;19.43;;;0.10;99.90;;;;;;4993088;28;20054;-75
2023/03/04 06:57:52;;;;;;;56.00;18.77;;;0.10;99.90;;;;;;4994185;28;20065;-73
2023/03/04 07:00:18;;;;;;;62.67;18.27;;;0.20;99.90;;;;;;4976756;28;20034;-73
2023/03/04 07:02:44;;;;;;;51.20;17.93;;;0.30;99.90;;;;;;4976162;28;20031;-73
2023/03/04 07:05:10;;;;;;;58.27;19.43;;;0.40;99.90;;;;;;4994181;28;20414;-73
2023/03/04 07:07:36;;;;;;;46.80;16.93;;;0.50;99.90;;;;;;4993643;28;20030;-73
2023/03/04 07:10:03;;;;;;;51.97;18.17;;;0.50;99.90;;;;;;4976500;28;20027;-73
2023/03/04 07:12:28;;;;;;;55.07;16.73;;;0.60;99.90;;;;;;4975743;28;20038;-73
2023/03/04 07:14:54;;;;;;;59.23;20.17;;;0.60;99.90;;;;;;4976451;28;20046;-72
2023/03/04 07:17:19;;;;;;;48.73;16.90;;;0.80;99.90;;;;;;4993948;28;20028;-73
2023/03/04 07:19:45;;;;;;;47.67;17.43;;;0.90;99.90;;;;;;4975949;28;20042;-73
2023/03/04 07:22:10;;;;;;;53.37;19.73;;;1.00;99.90;;;;;;4993770;28;20118;-73
2023/03/04 07:24:36;;;;;;;50.60;17.73;;;1.00;99.90;;;;;;4975783;28;20121;-73
2023/03/04 07:27:02;;;;;;;59.60;18.43;;;1.10;99.90;;;;;;4976348;28;20057;-72
2023/03/04 07:29:27;;;;;;;54.30;17.17;;;1.10;99.90;;;;;;4975805;28;20105;-73
2023/03/04 07:31:54;;;;;;;55.67;18.50;;;1.10;99.90;;;;;;4975980;28;20427;-72
2023/03/04 07:34:19;;;;;;;52.67;17.73;;;1.20;99.90;;;;;;4992945;28;20042;-73
2023/03/04 07:36:45;;;;;;;60.00;19.47;;;1.20;99.90;;;;;;4993115;28;20339;-72
2023/03/04 07:39:14;;;;;;;58.23;19.80;;;1.30;99.90;;;;;;4976119;28;20030;-73
2023/03/04 07:41:40;;;;;;;66.50;20.30;;;1.40;99.90;;;;;;4975627;28;20415;-73
2023/03/04 07:44:07;;;;;;;57.90;18.77;;;1.50;99.90;;;;;;4976035;28;20030;-73
2023/03/04 07:46:33;;;;;;;58.20;18.47;;;1.60;99.90;;;;;;4992953;28;20141;-73
2023/03/04 07:48:59;;;;;;;57.60;18.60;;;1.60;99.90;;;;;;4976298;28;20045;-73
2023/03/04 07:51:25;;;;;;;56.03;19.13;;;1.70;99.90;;;;;;4993445;28;20037;-72
2023/03/04 07:53:54;;;;;;;61.43;19.80;;;1.70;99.90;;;;;;4992857;28;20038;-73
2023/03/04 07:56:23;;;;;;;58.63;18.93;;;1.70;99.90;;;;;;4989110;28;20133;-73
2023/03/04 07:58:52;;;;;;;59.80;19.43;;;1.80;99.90;;;;;;4991644;28;20113;-73
2023/03/04 08:01:21;;;;;;;64.00;19.93;;;1.80;99.90;;;;;;4993073;28;20053;-73
2023/03/04 08:03:46;;;;;;;58.90;19.40;;;1.90;99.90;;;;;;4991607;28;20062;-73
2023/03/04 08:06:15;;;;;;;63.67;19.90;;;2.00;99.90;;;;;;4991730;28;20480;-73
2023/03/04 08:08:41;;;;;;;60.00;20.37;;;2.10;99.90;;;;;;4991859;28;20080;-73
2023/03/04 08:11:10;;;;;;;61.43;18.60;;;2.10;99.90;;;;;;4992007;28;20050;-72
2023/03/04 08:13:36;;;;;;;65.27;21.60;;;2.20;99.90;;;;;;4992607;28;20034;-74
2023/03/04 08:16:02;;;;;;;57.93;19.00;;;2.40;99.90;;;;;;4991988;28;20031;-73
2023/03/04 08:18:27;;;;;;;55.13;18.87;;;2.40;99.90;;;;;;4991970;28;20027;-73
2023/03/04 08:20:53;;;;;;;55.60;18.63;;;2.50;99.90;;;;;;4991500;28;20030;-74
2023/03/04 08:23:19;;;;;;;62.47;20.40;;;2.60;99.90;;;;;;4991932;28;20456;-73
2023/03/04 08:25:45;;;;;;;53.90;18.47;;;2.70;99.90;;;;;;4992708;28;20053;-73
2023/03/04 08:28:12;;;;;;;56.10;18.33;;;2.70;99.90;;;;;;4991865;28;20038;-73
2023/03/04 08:30:39;;;;;;;55.17;18.20;;;2.70;99.90;;;;;;4991360;28;20433;-74
2023/03/04 08:33:05;;;;;;;55.87;18.80;;;2.80;99.90;;;;;;4993061;28;20081;-72
2023/03/04 08:35:32;;;;;;;52.43;18.63;;;2.90;99.90;;;;;;4992316;28;20046;-72
2023/03/04 08:37:58;;;;;;;55.27;19.90;;;3.00;99.90;;;;;;4991772;28;20034;-71
2023/03/04 08:40:25;;;;;;;53.87;18.30;;;3.20;99.90;;;;;;4991734;28;20080;-71
2023/03/04 08:42:51;;;;;;;53.40;18.73;;;3.20;99.90;;;;;;4992536;28;20061;-73
2023/03/04 08:45:17;;;;;;;52.57;17.53;;;3.10;99.90;;;;;;4992740;28;20030;-73
2023/03/04 08:47:43;;;;;;;51.97;17.13;;;3.20;99.90;;;;;;4994865;28;20026;-73
2023/03/04 08:50:09;;;;;;;49.10;17.27;;;3.30;99.90;;;;;;4995476;28;20121;-73
2023/03/04 08:52:35;;;;;;;48.03;17.27;;;3.30;99.90;;;;;;4994960;28;20026;-72
2023/03/04 08:55:01;;;;;;;52.07;18.23;;;3.30;99.90;;;;;;4995001;28;20054;-71
2023/03/04 08:57:26;;;;;;;50.83;17.60;;;3.30;99.90;;;;;;4996576;28;20058;-71
2023/03/04 08:59:52;;;;;;;52.37;18.37;;;3.30;99.90;;;;;;4994406;28;20096;-71
2023/03/04 09:02:18;;;;;;;44.20;17.57;;;3.30;99.90;;;;;;4995077;28;20080;-71
2023/03/04 09:04:43;;;;;;;49.77;18.83;;;3.40;99.90;;;;;;4994479;28;20030;-71
2023/03/04 09:07:10;;;;;;;47.13;17.83;;;3.50;99.90;;;;;;4996301;28;20030;-73
2023/03/04 09:09:35;;;;;;;51.20;18.60;;;3.50;99.90;;;;;;4994509;28;20129;-72
2023/03/04 09:12:01;;;;;;;49.27;18.20;;;3.60;99.90;;;;;;4995081;28;20061;-71
2023/03/04 09:14:26;;;;;;;50.57;18.20;;;3.60;99.90;;;;;;4994796;28;20030;-71
2023/03/04 09:16:52;;;;;;;51.17;17.87;;;3.60;99.90;;;;;;4993983;28;20084;-71
2023/03/04 09:19:18;;;;;;;53.13;18.53;;;3.70;99.90;;;;;;4996024;28;20391;-71
2023/03/04 09:21:47;;;;;;;47.27;18.33;;;3.70;99.90;;;;;;4995589;28;20026;-71
2023/03/04 09:24:12;;;;;;;52.50;20.10;;;3.80;99.90;;;;;;4996000;28;20085;-71
2023/03/04 09:26:38;;;;;;;55.93;19.77;;;3.90;99.90;;;;;;4994541;28;20030;-71
2023/03/04 09:29:03;;;;;;;53.40;19.43;;;3.90;99.90;;;;;;4994664;28;20034;-75
2023/03/04 09:31:29;;;;;;;50.43;20.10;;;4.00;99.90;;;;;;4994563;28;20026;-72
2023/03/04 09:33:59;;;;;;;52.43;19.47;;;4.10;99.90;;;;;;4986577;28;20121;-75
2023/03/04 09:36:24;;;;;;;51.60;19.57;;;4.20;99.90;;;;;;4991484;28;20034;-70
2023/03/04 09:38:50;;;;;;;54.53;20.37;;;4.30;99.90;;;;;;4978167;28;20361;-73
2023/03/04 09:41:23;;;;;;;62.67;22.43;;;4.40;99.90;;;;;;4974894;28;20054;-73
2023/03/04 09:43:51;;;;;;;57.03;22.20;;;4.50;99.90;;;;;;4986273;28;20038;-74
2023/03/04 09:46:36;;;;;;;58.20;21.43;;;4.50;99.90;;;;;;4977548;28;20026;-77
2023/03/04 09:49:03;;;;;;;51.03;20.67;;;4.60;99.90;;;;;;4987574;28;20038;-72
2023/03/04 09:51:45;;;;;;;52.77;20.57;;;4.60;99.90;;;;;;4984296;28;20034;-72
2023/03/04 09:54:22;;;;;;;55.40;21.13;;;4.70;99.90;;;;;;4979179;28;20034;-75
2023/03/04 09:56:51;;;;;;;62.73;23.80;;;4.80;99.90;;;;;;4978910;28;20436;-74
2023/03/04 09:59:28;;;;;;;51.50;21.03;;;4.80;99.90;;;;;;4985205;28;20060;-71
2023/03/04 10:02:00;;;;;;;56.13;21.50;;;4.90;99.90;;;;;;4988227;28;20066;-70
2023/03/04 10:04:40;;;;;;;55.38;19.73;;;4.90;99.90;;;;;;4978428;28;20027;-73
2023/03/04 10:07:21;;;;;;;53.67;20.63;;;5.00;99.90;;;;;;4987911;28;20118;-70
2023/03/04 10:10:00;;;;;;;50.90;19.37;;;5.00;99.90;;;;;;4987205;28;20057;-72
2023/03/04 10:12:30;;;;;;;49.47;19.40;;;5.00;99.90;;;;;;4978338;28;20033;-72
2023/03/04 10:15:25;;;;;;;46.37;18.97;;;5.00;99.90;;;;;;4987045;28;20166;-71
2023/03/04 10:18:12;;;;;;;49.53;18.43;;;5.00;99.90;;;;;;4976609;28;20125;-71
2023/03/04 10:21:07;;;;;;;45.03;18.90;;;5.00;99.90;;;;;;4977647;28;20109;-71
2023/03/04 10:23:36;;;;;;;48.13;18.90;;;5.00;99.90;;;;;;4982663;28;20035;-81
2023/03/04 10:26:12;;;;;;;46.47;19.23;;;5.00;99.90;;;;;;4987896;28;20030;-71
2023/03/04 10:28:38;;;;;;;46.00;18.40;;;5.00;99.90;;;;;;4976456;28;20022;-71
2023/03/04 10:31:03;;;;;;;52.77;20.17;;;4.90;99.90;;;;;;4993234;28;20027;-70
2023/03/04 10:33:39;;;;;;;46.70;18.13;;;5.00;99.90;;;;;;4983752;28;20034;-75
2023/03/04 10:36:29;;;;;;;47.10;17.97;;;4.90;99.90;;;;;;4977941;28;20053;-71
2023/03/04 10:39:12;;;;;;;47.57;19.33;;;4.80;99.90;;;;;;4979586;28;20057;-72
2023/03/04 10:41:43;;;;;;;51.37;19.23;;;4.80;99.90;;;;;;4981389;28;20053;-71
2023/03/04 10:44:09;;;;;;;47.08;19.00;;;4.70;99.90;;;;;;4988703;28;20556;-72
2023/03/04 10:46:43;;;;;;;46.93;18.40;;;4.70;99.90;;;;;;4976005;28;20113;-72
2023/03/04 10:49:10;;;;;;;49.63;18.60;;;4.80;99.90;;;;;;4985421;28;20027;-71
2023/03/04 10:52:17;;;;;;;51.93;19.27;;;4.90;99.90;;;;;;4983635;28;20033;-71
2023/03/04 10:54:49;;;;;;;43.73;17.53;;;4.90;99.90;;;;;;4965371;28;20056;-72
2023/03/04 10:57:22;;;;;;;48.78;19.10;;;4.90;99.90;;;;;;4984134;28;20058;-71
2023/03/04 10:59:57;;;;;;;47.97;18.23;;;5.00;99.90;;;;;;4972314;28;20476;-71
2023/03/04 11:02:27;;;;;;;42.33;17.20;;;5.00;99.90;;;;;;4988719;28;20064;-72
2023/03/04 11:05:17;;;;;;;47.53;18.43;;;5.00;99.90;;;;;;4980201;28;20034;-71
2023/03/04 11:07:55;;;;;;;48.30;19.87;;;5.00;99.90;;;;;;4972524;28;20138;-73
2023/03/04 11:10:35;;;;;;;50.13;19.07;;;5.00;99.90;;;;;;4975301;28;20030;-73
2023/03/04 11:13:15;;;;;;;43.30;17.37;;;4.90;99.90;;;;;;4987166;28;20113;-73
2023/03/04 11:15:54;;;;;;;39.70;16.60;;;5.00;99.90;;;;;;4985087;28;20092;-72
2023/03/04 11:18:43;;;;;;;46.43;17.73;;;5.00;99.90;;;;;;4991346;28;20030;-73
2023/03/04 11:21:16;;;;;;;46.90;17.33;;;5.00;99.90;;;;;;4980556;28;20492;-72
2023/03/04 11:23:54;;;;;;;43.37;16.57;;;5.00;99.90;;;;;;4980207;28;20035;-72
2023/03/04 11:26:55;;;;;;;42.93;16.33;;;5.00;99.90;;;;;;4988666;28;20068;-73
2023/03/04 11:29:27;;;;;;;43.90;16.87;;;5.00;99.90;;;;;;4983170;28;20038;-72
2023/03/04 11:32:31;;;;;;;44.17;16.25;;;5.10;99.90;;;;;;4978411;28;20023;-74
2023/03/04 11:35:24;;;;;;;40.97;16.30;;;5.10;99.90;;;;;;4882290;29;20487;-74
2023/03/04 11:37:58;;;;;;;43.10;16.97;;;5.10;99.90;;;;;;4982110;28;20038;-73
2023/03/04 11:40:39;;;;;;;38.60;16.47;;;5.10;99.90;;;;;;4976065;28;20030;-73
2023/03/04 11:43:10;;;;;;;40.55;15.63;;;5.10;99.90;;;;;;4985221;28;20035;-73
2023/03/04 11:45:58;;;;;;;46.77;16.87;;;5.10;99.90;;;;;;4983938;28;20041;-72
2023/03/04 11:48:33;;;;;;;40.40;15.87;;;5.20;99.90;;;;;;4975510;28;20105;-72
2023/03/04 11:51:07;;;;;;;42.13;15.33;;;5.20;99.90;;;;;;4985572;28;20350;-72
2023/03/04 11:53:47;;;;;;;40.33;16.63;;;5.20;99.90;;;;;;4982690;28;20459;-72
2023/03/04 11:56:28;;;;;;;43.07;16.00;;;5.30;99.90;;;;;;4975382;28;20596;-72
2023/03/04 11:59:19;;;;;;;48.03;16.90;;;5.30;99.90;;;;;;4977257;28;20399;-73
2023/03/04 12:02:04;;;;;;;41.93;16.10;;;5.30;99.90;;;;;;4980203;28;20420;-73
2023/03/04 12:04:35;;;;;;;45.00;16.83;;;5.40;99.90;;;;;;4989446;28;20030;-73
2023/03/04 12:07:24;;;;;;;36.65;15.50;;;5.40;99.90;;;;;;4978070;28;20081;-73
2023/03/04 12:10:11;;;;;;;45.77;16.03;;;5.40;99.90;;;;;;4966153;28;20049;-73
2023/03/04 12:12:51;;;;;;;39.23;14.77;;;5.40;99.90;;;;;;4988802;28;20354;-73
2023/03/04 12:15:45;;;;;;;40.13;15.83;;;5.40;99.90;;;;;;4980362;28;20030;-73
2023/03/04 12:18:19;;;;;;;40.20;15.83;;;5.50;99.90;;;;;;4977310;28;20031;-72
2023/03/04 12:21:15;;;;;;;37.20;15.20;;;5.50;99.90;;;;;;4974622;28;20101;-72
2023/03/04 12:23:49;;;;;;;39.40;15.27;;;5.40;99.90;;;;;;4988316;28;20049;-73
2023/03/04 12:26:49;;;;;;;37.60;15.30;;;5.40;99.90;;;;;;4980520;28;20031;-75
2023/03/04 12:29:31;;;;;;;42.00;15.17;;;5.40;99.90;;;;;;4987361;28;20464;-73
2023/03/04 12:32:26;;;;;;;38.47;15.35;;;5.40;99.90;;;;;;4988971;28;20031;-72
2023/03/04 12:35:11;;;;;;;36.37;14.83;;;5.50;99.90;;;;;;4959180;28;20108;-74
2023/03/04 12:38:00;;;;;;;39.80;15.33;;;5.50;99.90;;;;;;4983778;28;20031;-73
2023/03/04 12:40:37;;;;;;;37.47;15.30;;;5.50;99.90;;;;;;4991821;28;20026;-72
2023/03/04 12:43:50;;;;;;;40.30;14.70;;;5.50;99.90;;;;;;4982264;28;20027;-72
2023/03/04 12:46:35;;;;;;;38.90;14.27;;;5.50;99.90;;;;;;4979018;28;20480;-73
2023/03/04 12:49:30;;;;;;;45.67;14.73;;;5.50;99.90;;;;;;4988737;28;20054;-73